Time;durP1;ratioP1;P1;durP2;ratioP2;P2;SDS_P1;SDS_P2;PMS_P1;PMS_P2;Temp;Humidity;BMP_temperature;BMP_pressure;BME280_temperature;BME280_humidity;BME280_pressure;Samples;Min_cycle;Max_cycle;Signal;HPM_P1;HPM_P2
2023/08/12 00:00:55;;;;;;;11.93;2.60;;;19.00;99.90;;;;;;4958109;28;20220;-88
2023/08/12 00:03:21;;;;;;;9.90;2.60;;;19.10;99.90;;;;;;4959090;28;20183;-89
2023/08/12 00:05:47;;;;;;;5.82;2.63;;;19.00;99.90;;;;;;4958953;28;20517;-88
2023/08/12 00:08:19;;;;;;;7.15;2.50;;;18.90;99.90;;;;;;4959162;28;20176;-88
2023/08/12 00:10:45;;;;;;;7.70;2.08;;;18.90;99.90;;;;;;4975929;28;20264;-89
2023/08/12 00:13:13;;;;;;;8.40;2.42;;;18.90;99.90;;;;;;4959218;28;20226;-89
2023/08/12 00:15:40;;;;;;;14.07;2.45;;;18.90;99.90;;;;;;4958425;28;20271;-89
2023/08/12 00:18:36;;;;;;;4.93;2.40;;;19.00;99.90;;;;;;4958716;28;20181;-89
2023/08/12 00:21:09;;;;;;;9.70;2.58;;;18.80;99.90;;;;;;4975830;28;20251;-89
2023/08/12 00:23:44;;;;;;;15.70;2.90;;;18.80;99.90;;;;;;4958940;28;20176;-88
2023/08/12 00:26:10;;;;;;;24.50;2.55;;;18.80;99.90;;;;;;4976005;28;20176;-89
2023/08/12 00:28:43;;;;;;;6.22;2.25;;;18.80;99.90;;;;;;4958716;28;20176;-88
2023/08/12 00:31:08;;;;;;;7.57;2.17;;;18.80;99.90;;;;;;4974483;28;20188;-89
2023/08/12 00:33:34;;;;;;;10.82;2.30;;;18.70;99.90;;;;;;4979199;28;20203;-89
2023/08/12 00:36:00;;;;;;;7.55;2.38;;;18.70;99.90;;;;;;4962444;28;20183;-89
2023/08/12 00:38:32;;;;;;;11.52;2.63;;;18.70;99.90;;;;;;4962013;28;20239;-88
2023/08/12 00:40:58;;;;;;;5.00;2.17;;;18.70;99.90;;;;;;4979236;28;20235;-88
2023/08/12 00:43:24;;;;;;;8.18;2.55;;;18.60;99.90;;;;;;4981434;28;20211;-88
2023/08/12 00:45:50;;;;;;;5.03;2.42;;;18.60;99.90;;;;;;4997227;28;20187;-89
2023/08/12 00:48:18;;;;;;;9.57;2.40;;;18.60;99.90;;;;;;4998638;28;20657;-88
2023/08/12 00:50:44;;;;;;;9.30;2.15;;;18.60;99.90;;;;;;4981473;28;20233;-89
2023/08/12 00:53:12;;;;;;;6.00;2.30;;;18.50;99.90;;;;;;4981254;28;20179;-89
2023/08/12 00:55:38;;;;;;;6.15;2.35;;;18.50;99.90;;;;;;4981462;28;20176;-89
2023/08/12 00:58:20;;;;;;;5.40;2.20;;;18.50;99.90;;;;;;4981152;28;20180;-89
2023/08/12 01:00:46;;;;;;;8.10;2.13;;;18.40;99.90;;;;;;4998338;28;20216;-89
2023/08/12 01:03:12;;;;;;;7.35;2.50;;;18.40;99.90;;;;;;4997444;28;20176;-89
2023/08/12 01:05:38;;;;;;;3.55;1.83;;;18.40;99.90;;;;;;4998643;28;20611;-89
2023/08/12 01:08:09;;;;;;;4.45;2.22;;;18.50;99.90;;;;;;4981201;28;20566;-89
2023/08/12 01:10:39;;;;;;;7.53;2.60;;;18.50;99.90;;;;;;4998298;28;20223;-88
2023/08/12 01:13:17;;;;;;;11.35;2.55;;;18.50;99.90;;;;;;4981109;28;20226;-89
2023/08/12 01:15:44;;;;;;;9.18;2.35;;;18.50;99.90;;;;;;4980896;28;20176;-88
2023/08/12 01:18:12;;;;;;;9.40;2.60;;;18.50;99.90;;;;;;4980846;28;20230;-89
2023/08/12 01:20:38;;;;;;;4.78;2.28;;;18.50;99.90;;;;;;4980603;28;20207;-88
2023/08/12 01:23:11;;;;;;;12.27;3.05;;;18.50;99.90;;;;;;4980571;28;20183;-88
2023/08/12 01:25:36;;;;;;;7.45;2.30;;;18.50;99.90;;;;;;4980864;28;20184;-88
2023/08/12 01:28:14;;;;;;;10.43;2.40;;;18.60;99.90;;;;;;4980592;28;20186;-89
2023/08/12 01:30:57;;;;;;;4.97;2.60;;;18.50;99.90;;;;;;4980045;28;20187;-89
2023/08/12 01:33:46;;;;;;;6.32;2.20;;;18.50;99.90;;;;;;4980739;28;20176;-89
2023/08/12 01:36:18;;;;;;;4.57;2.10;;;18.50;99.90;;;;;;4980592;28;20195;-89
2023/08/12 01:38:48;;;;;;;6.53;2.42;;;18.50;99.90;;;;;;4980749;28;20696;-89
2023/08/12 01:41:16;;;;;;;8.07;2.25;;;18.50;99.90;;;;;;4980090;28;20267;-89
2023/08/12 01:43:43;;;;;;;8.10;2.50;;;18.50;99.90;;;;;;4979852;28;20172;-89
2023/08/12 01:46:09;;;;;;;4.80;2.38;;;18.40;99.90;;;;;;4980129;28;20187;-89
2023/08/12 01:48:37;;;;;;;8.02;2.28;;;18.30;99.90;;;;;;4980160;28;20180;-89
2023/08/12 01:51:03;;;;;;;8.80;2.63;;;18.30;99.90;;;;;;4980188;28;20266;-89
2023/08/12 01:53:29;;;;;;;10.23;2.35;;;18.30;99.90;;;;;;4980106;28;20319;-89
2023/08/12 01:55:54;;;;;;;4.93;2.20;;;18.30;99.90;;;;;;4980180;28;20234;-89
2023/08/12 01:58:20;;;;;;;5.35;2.30;;;18.30;99.90;;;;;;4997530;28;20570;-89
2023/08/12 02:00:46;;;;;;;5.18;2.25;;;18.30;99.90;;;;;;4997296;28;20223;-89
2023/08/12 02:03:12;;;;;;;7.13;2.17;;;18.30;99.90;;;;;;4980207;28;20180;-89
2023/08/12 02:05:37;;;;;;;5.22;2.17;;;18.30;99.90;;;;;;4980277;28;20287;-88
2023/08/12 02:08:06;;;;;;;7.32;2.50;;;18.30;99.90;;;;;;4995936;28;20183;-89
2023/08/12 02:10:32;;;;;;;7.57;2.40;;;18.30;99.90;;;;;;4979806;28;20172;-89
2023/08/12 02:12:58;;;;;;;4.93;2.67;;;18.30;99.90;;;;;;4997029;28;20215;-89
2023/08/12 02:15:24;;;;;;;6.20;2.13;;;18.30;99.90;;;;;;4979501;28;20638;-89
2023/08/12 02:17:49;;;;;;;3.85;2.00;;;18.20;99.90;;;;;;4979789;28;20642;-88
2023/08/12 02:20:22;;;;;;;4.95;1.98;;;18.20;99.90;;;;;;4979536;28;20732;-88
2023/08/12 02:22:48;;;;;;;4.97;2.30;;;18.20;99.90;;;;;;4997013;28;20611;-89
2023/08/12 02:25:14;;;;;;;14.07;2.42;;;18.20;99.90;;;;;;4979603;28;20182;-89
2023/08/12 02:27:39;;;;;;;9.25;2.22;;;18.20;99.90;;;;;;4979556;28;20187;-88
2023/08/12 02:30:12;;;;;;;5.32;2.40;;;18.10;99.90;;;;;;4996696;28;20227;-89
2023/08/12 02:32:37;;;;;;;11.65;3.20;;;18.00;99.90;;;;;;4996539;28;20183;-89
2023/08/12 02:35:03;;;;;;;6.55;2.38;;;18.00;99.90;;;;;;4996926;28;20180;-89
2023/08/12 02:37:29;;;;;;;4.43;1.88;;;18.10;99.90;;;;;;4995620;28;20194;-88
2023/08/12 02:39:54;;;;;;;4.70;2.28;;;18.10;99.90;;;;;;4987827;28;20235;-89
2023/08/12 02:42:20;;;;;;;6.57;2.47;;;18.10;99.90;;;;;;4959921;28;20628;-89
2023/08/12 02:44:46;;;;;;;6.60;2.58;;;18.00;99.90;;;;;;4960062;28;20179;-89
2023/08/12 02:47:11;;;;;;;7.32;2.70;;;17.90;99.90;;;;;;4977107;28;20176;-88
2023/08/12 02:49:44;;;;;;;6.43;2.70;;;17.90;99.90;;;;;;4977477;28;20592;-88
2023/08/12 02:52:10;;;;;;;3.20;2.35;;;17.90;99.90;;;;;;4959513;28;20180;-88
2023/08/12 02:54:35;;;;;;;6.97;2.70;;;17.90;99.90;;;;;;5434604;23;20289;-89
2023/08/12 02:57:01;;;;;;;4.38;2.45;;;17.90;99.90;;;;;;4997499;28;20210;-89
2023/08/12 02:59:27;;;;;;;6.53;2.45;;;17.90;99.90;;;;;;4998390;28;20214;-89
2023/08/12 03:01:52;;;;;;;7.25;2.15;;;17.90;99.90;;;;;;4998344;28;20248;-88
2023/08/12 03:04:18;;;;;;;6.10;2.40;;;17.90;99.90;;;;;;4998168;28;20282;-89
2023/08/12 03:06:44;;;;;;;5.88;2.58;;;18.00;99.90;;;;;;4997994;28;20609;-90
2023/08/12 03:09:09;;;;;;;9.90;2.50;;;17.90;99.90;;;;;;4998058;28;20602;-89
2023/08/12 03:11:35;;;;;;;5.72;2.70;;;17.90;99.90;;;;;;4998389;28;20179;-88
2023/08/12 03:14:01;;;;;;;4.75;2.33;;;17.90;99.90;;;;;;4998518;28;20515;-89
2023/08/12 03:16:26;;;;;;;6.53;2.40;;;17.80;99.90;;;;;;4998316;28;20174;-89
2023/08/12 03:18:52;;;;;;;6.20;2.40;;;17.90;99.90;;;;;;4998315;28;20186;-90
2023/08/12 03:21:18;;;;;;;8.88;2.50;;;17.90;99.90;;;;;;4998318;28;20318;-90
2023/08/12 03:23:44;;;;;;;6.63;2.67;;;18.00;99.90;;;;;;4998281;28;20175;-90
2023/08/12 03:26:09;;;;;;;6.05;2.70;;;18.10;99.90;;;;;;5017269;28;20183;-90
2023/08/12 03:28:35;;;;;;;5.78;2.72;;;18.10;99.90;;;;;;5017637;28;20174;-90
2023/08/12 03:31:01;;;;;;;8.45;2.60;;;18.10;99.90;;;;;;5017735;28;20171;-91
2023/08/12 03:33:26;;;;;;;6.28;2.50;;;18.10;99.90;;;;;;5017748;28;20178;-91
2023/08/12 03:35:55;;;;;;;9.07;2.50;;;18.10;99.90;;;;;;5017696;28;20182;-90
2023/08/12 03:38:21;;;;;;;9.30;3.00;;;18.20;99.90;;;;;;5017666;28;20635;-90
2023/08/12 03:40:47;;;;;;;7.13;2.30;;;18.20;99.90;;;;;;5034508;28;20202;-89
2023/08/12 03:43:12;;;;;;;3.05;2.20;;;18.20;99.90;;;;;;5017402;28;20229;-91
2023/08/12 03:45:44;;;;;;;4.85;2.55;;;18.20;99.90;;;;;;5017582;28;20278;-90
2023/08/12 03:48:10;;;;;;;3.85;2.33;;;18.30;99.90;;;;;;5017497;28;20206;-91
2023/08/12 03:50:39;;;;;;;5.40;2.45;;;18.30;99.90;;;;;;5017024;28;20182;-89
2023/08/12 03:53:04;;;;;;;5.47;3.08;;;18.30;99.90;;;;;;5017442;28;20317;-90
2023/08/12 03:55:32;;;;;;;3.78;2.05;;;18.30;99.90;;;;;;5016954;28;20297;-90
2023/08/12 03:58:01;;;;;;;5.07;2.47;;;18.30;99.90;;;;;;5017252;28;20213;-90
2023/08/12 04:00:28;;;;;;;8.63;2.72;;;18.30;99.90;;;;;;5017174;28;20206;-90
2023/08/12 04:02:54;;;;;;;4.47;2.30;;;18.30;99.90;;;;;;5034851;28;20193;-91
2023/08/12 04:05:19;;;;;;;8.05;2.72;;;18.30;99.90;;;;;;5017361;28;20707;-90
2023/08/12 04:07:49;;;;;;;5.97;2.47;;;18.30;99.90;;;;;;5019250;28;20269;-90
2023/08/12 04:10:15;;;;;;;4.95;2.35;;;18.30;99.90;;;;;;5021108;28;20175;-89
2023/08/12 04:12:41;;;;;;;5.15;2.55;;;18.30;99.90;;;;;;5021003;28;20193;-89
2023/08/12 04:15:08;;;;;;;5.50;2.58;;;18.30;99.90;;;;;;5020900;28;20202;-89
2023/08/12 04:17:40;;;;;;;4.88;2.50;;;18.40;99.90;;;;;;5038329;28;20198;-87
2023/08/12 04:20:07;;;;;;;4.68;2.40;;;18.30;99.90;;;;;;5020705;28;20237;-87
2023/08/12 04:22:34;;;;;;;3.92;2.17;;;18.40;99.90;;;;;;5038338;28;20249;-88
2023/08/12 04:24:59;;;;;;;3.22;2.47;;;18.30;99.90;;;;;;5020392;28;20182;-88
2023/08/12 04:27:29;;;;;;;12.48;3.08;;;18.40;99.90;;;;;;5020943;28;20189;-89
2023/08/12 04:29:55;;;;;;;5.80;2.50;;;18.30;99.90;;;;;;5020839;28;20175;-88
2023/08/12 04:32:20;;;;;;;6.68;2.65;;;18.40;99.90;;;;;;5020860;28;20189;-90
2023/08/12 04:34:46;;;;;;;7.28;2.65;;;18.40;99.90;;;;;;5020696;28;20178;-89
2023/08/12 04:37:15;;;;;;;6.15;2.30;;;18.50;99.90;;;;;;5020853;28;20613;-89
2023/08/12 04:39:41;;;;;;;6.45;2.33;;;18.50;99.90;;;;;;5037884;28;20194;-88
2023/08/12 04:42:07;;;;;;;5.70;2.33;;;18.60;99.90;;;;;;5020411;28;20178;-88
2023/08/12 04:44:32;;;;;;;5.47;2.40;;;18.60;99.90;;;;;;5020278;28;20546;-90
2023/08/12 04:47:00;;;;;;;8.30;2.80;;;18.60;99.90;;;;;;5020711;28;20526;-88
2023/08/12 04:49:27;;;;;;;5.65;2.70;;;18.60;99.90;;;;;;5018925;28;20256;-89
2023/08/12 04:52:04;;;;;;;5.45;2.20;;;18.60;99.90;;;;;;5003486;28;20209;-90
2023/08/12 04:54:30;;;;;;;4.72;2.40;;;18.60;99.90;;;;;;5007663;28;20264;-89
2023/08/12 04:56:56;;;;;;;4.50;2.17;;;18.70;99.90;;;;;;5010976;28;20186;-89
2023/08/12 04:59:22;;;;;;;4.53;2.30;;;18.80;99.90;;;;;;5020014;28;20206;-88
2023/08/12 05:01:48;;;;;;;6.45;2.30;;;18.80;99.90;;;;;;5017761;28;20183;-88
2023/08/12 05:04:15;;;;;;;4.70;2.20;;;18.90;99.90;;;;;;5000514;28;20206;-86
2023/08/12 05:06:40;;;;;;;10.60;2.92;;;18.90;99.90;;;;;;5000456;28;20233;-89
2023/08/12 05:09:06;;;;;;;7.80;2.83;;;19.00;99.90;;;;;;5000163;28;20175;-88
2023/08/12 05:11:32;;;;;;;6.22;2.40;;;19.00;99.90;;;;;;5006423;28;20640;-88
2023/08/12 05:13:57;;;;;;;3.55;2.10;;;19.00;99.90;;;;;;5017313;28;20388;-88
2023/08/12 05:16:25;;;;;;;6.03;2.60;;;19.00;99.90;;;;;;5009681;28;20190;-88
2023/08/12 05:18:52;;;;;;;3.33;2.50;;;19.00;99.90;;;;;;5015769;28;20166;-88
2023/08/12 05:21:18;;;;;;;7.25;2.70;;;19.00;99.90;;;;;;5019581;28;20214;-88
2023/08/12 05:23:44;;;;;;;7.70;2.25;;;19.00;99.90;;;;;;5019401;28;20185;-88
2023/08/12 05:26:09;;;;;;;6.97;2.60;;;19.00;99.90;;;;;;5036892;28;20174;-89
2023/08/12 05:28:36;;;;;;;4.95;2.55;;;19.10;99.90;;;;;;5019183;28;20186;-88
2023/08/12 05:31:02;;;;;;;7.22;2.45;;;19.00;99.90;;;;;;5007753;28;20183;-87
2023/08/12 05:33:28;;;;;;;4.55;2.63;;;19.00;99.90;;;;;;5006639;28;20240;-88
2023/08/12 05:35:53;;;;;;;5.15;2.40;;;19.00;99.90;;;;;;5015648;28;20186;-86
2023/08/12 05:38:20;;;;;;;9.23;2.60;;;19.00;99.90;;;;;;5001090;28;20187;-87
2023/08/12 05:40:46;;;;;;;4.43;2.85;;;19.00;99.90;;;;;;5017583;28;20338;-87
2023/08/12 05:43:11;;;;;;;5.40;2.83;;;19.00;99.90;;;;;;5018573;28;20610;-87
2023/08/12 05:45:37;;;;;;;3.50;2.85;;;18.90;99.90;;;;;;5015468;28;20218;-86
2023/08/12 05:48:03;;;;;;;4.03;2.78;;;18.90;99.90;;;;;;5018714;28;20180;-86
2023/08/12 05:50:29;;;;;;;4.60;2.63;;;18.90;99.90;;;;;;5036020;28;20216;-85
2023/08/12 05:52:55;;;;;;;4.72;2.90;;;18.80;99.90;;;;;;5018347;28;20265;-86
2023/08/12 05:55:20;;;;;;;9.55;3.53;;;18.80;99.90;;;;;;5018099;28;20230;-87
2023/08/12 05:57:48;;;;;;;7.22;3.15;;;18.80;99.90;;;;;;5036229;28;20174;-87
2023/08/12 06:00:14;;;;;;;5.85;3.25;;;18.80;99.90;;;;;;5018250;28;20194;-87
2023/08/12 06:02:40;;;;;;;6.22;3.28;;;18.80;99.90;;;;;;5009695;28;20507;-87
2023/08/12 06:05:06;;;;;;;7.70;3.40;;;18.80;99.90;;;;;;5027616;28;20170;-86
2023/08/12 06:07:34;;;;;;;9.73;3.67;;;18.80;99.90;;;;;;5005378;28;20171;-88
2023/08/12 06:10:01;;;;;;;8.60;3.13;;;18.90;99.90;;;;;;4990490;28;20179;-87
2023/08/12 06:12:26;;;;;;;9.55;3.42;;;18.90;99.90;;;;;;4998760;28;20621;-87
2023/08/12 06:14:52;;;;;;;9.63;3.20;;;19.00;99.90;;;;;;4998679;28;20233;-87
2023/08/12 06:17:18;;;;;;;4.63;3.08;;;19.00;99.90;;;;;;4998561;28;20274;-88
2023/08/12 06:19:44;;;;;;;6.10;3.55;;;19.10;99.90;;;;;;4998292;28;20646;-86
2023/08/12 06:22:09;;;;;;;5.75;3.17;;;19.20;99.90;;;;;;4997844;28;20610;-86
2023/08/12 06:24:35;;;;;;;8.75;3.20;;;19.20;99.90;;;;;;5005327;28;20617;-87
2023/08/12 06:27:01;;;;;;;4.85;3.28;;;19.30;99.90;;;;;;5009837;28;20183;-84
2023/08/12 06:29:27;;;;;;;4.53;2.88;;;19.40;99.90;;;;;;5012141;28;20269;-88
2023/08/12 06:31:53;;;;;;;6.75;3.45;;;19.50;99.90;;;;;;5002242;28;20604;-88
2023/08/12 06:34:18;;;;;;;6.45;3.70;;;19.60;99.90;;;;;;4999773;28;20168;-87
2023/08/12 06:36:44;;;;;;;5.72;3.33;;;19.60;99.90;;;;;;5004329;28;20911;-86
2023/08/12 06:39:13;;;;;;;5.70;3.53;;;19.70;99.90;;;;;;5011753;28;20178;-89
2023/08/12 06:41:39;;;;;;;4.95;3.30;;;19.80;99.90;;;;;;5016775;28;20629;-89
2023/08/12 06:44:05;;;;;;;5.43;3.00;;;19.80;99.90;;;;;;5016266;28;20182;-87
2023/08/12 06:46:31;;;;;;;4.30;3.20;;;19.90;99.90;;;;;;5016411;28;20182;-88
2023/08/12 06:48:59;;;;;;;7.45;3.22;;;19.90;99.90;;;;;;4997399;28;20183;-86
2023/08/12 06:51:24;;;;;;;11.88;3.20;;;19.90;99.90;;;;;;5007451;28;20269;-87
2023/08/12 06:53:50;;;;;;;9.23;4.30;;;19.90;99.90;;;;;;5002353;28;20721;-93
2023/08/12 06:56:16;;;;;;;7.88;3.65;;;19.90;99.90;;;;;;5012655;28;20178;-85
2023/08/12 06:58:42;;;;;;;4.25;3.30;;;19.90;99.90;;;;;;4980292;28;20180;-86
2023/08/12 07:01:08;;;;;;;3.97;2.75;;;19.90;99.90;;;;;;4985235;28;20216;-86
2023/08/12 07:03:34;;;;;;;5.43;3.67;;;19.90;99.90;;;;;;4993509;28;20171;-86
2023/08/12 07:05:59;;;;;;;6.38;3.17;;;19.90;99.90;;;;;;4996777;28;20269;-86
2023/08/12 07:08:26;;;;;;;6.75;3.38;;;20.00;99.90;;;;;;4996459;28;20606;-86
2023/08/12 07:10:53;;;;;;;6.43;3.40;;;20.00;99.90;;;;;;4997484;28;20186;-86
2023/08/12 07:13:18;;;;;;;8.13;3.45;;;20.00;99.90;;;;;;4996865;28;20183;-86
2023/08/12 07:15:44;;;;;;;11.70;3.72;;;20.00;99.90;;;;;;4997459;28;20692;-87
2023/08/12 07:18:10;;;;;;;4.80;3.78;;;20.10;99.90;;;;;;4997277;28;20171;-87
2023/08/12 07:20:36;;;;;;;9.00;3.55;;;20.10;99.90;;;;;;5013960;28;20584;-87
2023/08/12 07:23:01;;;;;;;10.35;3.90;;;20.10;99.90;;;;;;5014936;28;20271;-86
2023/08/12 07:25:27;;;;;;;7.47;3.90;;;20.10;99.90;;;;;;5013902;28;20190;-86
2023/08/12 07:27:53;;;;;;;6.38;3.67;;;20.10;99.90;;;;;;4997465;28;20183;-87
2023/08/12 07:30:19;;;;;;;6.43;3.88;;;20.20;99.90;;;;;;4997301;28;20688;-87
2023/08/12 07:32:44;;;;;;;5.78;3.83;;;20.20;99.90;;;;;;4997368;28;20167;-87
2023/08/12 07:35:10;;;;;;;9.85;4.53;;;20.30;99.90;;;;;;4997585;28;20179;-87
2023/08/12 07:37:36;;;;;;;7.13;4.15;;;20.30;99.90;;;;;;5014032;28;20167;-88
2023/08/12 07:40:03;;;;;;;8.00;4.25;;;20.30;99.90;;;;;;4997265;28;20676;-87
2023/08/12 07:42:29;;;;;;;7.45;4.82;;;20.40;99.90;;;;;;4996931;28;20179;-87
2023/08/12 07:44:54;;;;;;;4.53;3.92;;;20.40;99.90;;;;;;4997524;28;20198;-87
2023/08/12 07:47:20;;;;;;;10.18;5.10;;;20.40;99.90;;;;;;5014825;28;20291;-86
2023/08/12 07:49:46;;;;;;;6.63;4.50;;;20.40;99.90;;;;;;4997054;28;20179;-88
2023/08/12 07:52:12;;;;;;;8.43;4.65;;;20.40;99.90;;;;;;5014681;28;20170;-87
2023/08/12 07:54:37;;;;;;;7.20;4.60;;;20.40;99.90;;;;;;5004723;28;20230;-86
2023/08/12 07:57:03;;;;;;;7.25;4.65;;;20.40;99.90;;;;;;5016675;28;20185;-87
2023/08/12 07:59:29;;;;;;;7.07;4.43;;;20.30;99.90;;;;;;5016468;28;20284;-88
2023/08/12 08:01:55;;;;;;;7.68;4.35;;;20.40;99.90;;;;;;5016711;28;20265;-87
2023/08/12 08:04:20;;;;;;;7.03;4.55;;;20.40;99.90;;;;;;5016870;28;20186;-88
2023/08/12 08:06:46;;;;;;;6.50;4.55;;;20.30;99.90;;;;;;5034539;28;20175;-86
2023/08/12 08:09:12;;;;;;;7.47;4.22;;;20.40;99.90;;;;;;5016211;28;20214;-87
2023/08/12 08:11:38;;;;;;;6.93;4.10;;;20.40;99.90;;;;;;5016551;28;20206;-87
2023/08/12 08:14:04;;;;;;;5.78;3.85;;;20.30;99.90;;;;;;5016737;28;20183;-86
2023/08/12 08:16:29;;;;;;;4.20;3.53;;;20.40;99.90;;;;;;5016429;28;20213;-85
2023/08/12 08:18:57;;;;;;;6.20;4.10;;;20.30;99.90;;;;;;5016432;28;20210;-86
2023/08/12 08:21:23;;;;;;;6.50;4.30;;;20.30;99.90;;;;;;5016413;28;20249;-87
2023/08/12 08:23:48;;;;;;;6.45;3.83;;;20.30;99.90;;;;;;5016230;28;20210;-89
2023/08/12 08:26:15;;;;;;;7.13;4.05;;;20.30;99.90;;;;;;5016498;28;20233;-86
2023/08/12 08:28:42;;;;;;;6.22;4.20;;;20.30;99.90;;;;;;5016398;28;20182;-86
2023/08/12 08:31:09;;;;;;;8.38;4.10;;;20.30;99.90;;;;;;5016420;28;20171;-87
2023/08/12 08:33:34;;;;;;;7.10;4.22;;;20.40;99.90;;;;;;5016382;28;20198;-87
2023/08/12 08:36:00;;;;;;;6.63;3.80;;;20.40;99.90;;;;;;5016528;28;20617;-87
2023/08/12 08:38:26;;;;;;;5.30;3.80;;;20.40;99.90;;;;;;5033628;28;20185;-87
2023/08/12 08:40:52;;;;;;;5.72;3.70;;;20.40;99.90;;;;;;5016264;28;20305;-88
2023/08/12 08:43:22;;;;;;;5.47;3.80;;;20.40;99.90;;;;;;5016287;28;20178;-86
2023/08/12 08:45:53;;;;;;;4.57;3.40;;;20.40;99.90;;;;;;5033748;28;20186;-87
2023/08/12 08:48:20;;;;;;;6.80;3.80;;;20.40;99.90;;;;;;5016171;28;20179;-86
2023/08/12 08:50:47;;;;;;;4.90;3.70;;;20.40;99.90;;;;;;5016150;28;20171;-86
2023/08/12 08:53:15;;;;;;;7.80;4.10;;;20.40;99.90;;;;;;5016095;28;20186;-87
2023/08/12 08:55:41;;;;;;;5.35;3.40;;;20.40;99.90;;;;;;5020406;28;20219;-87
2023/08/12 08:58:07;;;;;;;4.78;3.38;;;20.50;99.90;;;;;;5017697;28;20194;-87
2023/08/12 09:00:33;;;;;;;6.60;3.53;;;20.50;99.90;;;;;;4999201;28;20213;-86
2023/08/12 09:02:59;;;;;;;5.03;3.58;;;20.60;99.90;;;;;;5000059;28;20178;-87
2023/08/12 09:05:26;;;;;;;5.40;3.58;;;20.70;99.90;;;;;;4999935;28;20183;-86
2023/08/12 09:07:54;;;;;;;7.70;3.70;;;20.70;99.90;;;;;;4999697;28;20175;-86
2023/08/12 09:10:21;;;;;;;6.22;3.67;;;20.80;99.90;;;;;;5017253;28;20210;-87
2023/08/12 09:12:47;;;;;;;6.07;3.70;;;20.80;99.90;;;;;;5017367;28;20167;-88
2023/08/12 09:15:12;;;;;;;5.68;3.63;;;20.80;99.90;;;;;;5017128;28;20487;-87
2023/08/12 09:17:38;;;;;;;4.35;3.70;;;20.70;99.90;;;;;;5017357;28;20194;-88
2023/08/12 09:20:11;;;;;;;5.10;3.53;;;20.70;99.90;;;;;;4999880;28;20242;-88
2023/08/12 09:22:38;;;;;;;5.03;3.72;;;20.70;99.90;;;;;;5000002;28;20183;-87
2023/08/12 09:25:04;;;;;;;5.93;3.60;;;20.70;99.90;;;;;;4999742;28;20179;-86
2023/08/12 09:27:35;;;;;;;8.73;3.85;;;20.70;99.90;;;;;;4999533;28;20234;-86
2023/08/12 09:30:03;;;;;;;6.40;3.67;;;20.70;99.90;;;;;;4998583;28;20183;-87
2023/08/12 09:32:29;;;;;;;4.63;3.85;;;20.70;99.90;;;;;;4999418;28;20202;-87
2023/08/12 09:34:55;;;;;;;4.82;3.45;;;20.80;99.90;;;;;;4999412;28;20614;-88
2023/08/12 09:37:23;;;;;;;6.30;3.78;;;20.80;99.90;;;;;;4999620;28;20224;-88
2023/08/12 09:39:50;;;;;;;6.35;3.75;;;20.80;99.90;;;;;;4999318;28;20219;-87
2023/08/12 09:42:16;;;;;;;4.78;3.50;;;20.80;99.90;;;;;;4999422;28;20309;-88
2023/08/12 09:44:42;;;;;;;5.15;3.75;;;20.80;99.90;;;;;;4999421;28;20577;-87
2023/08/12 09:47:09;;;;;;;4.22;3.53;;;20.80;99.90;;;;;;4999317;28;20257;-89
2023/08/12 09:49:35;;;;;;;6.03;3.58;;;20.80;99.90;;;;;;4999342;28;20179;-88
2023/08/12 09:52:03;;;;;;;8.18;4.00;;;20.90;99.90;;;;;;4999397;28;20232;-88
2023/08/12 09:54:31;;;;;;;7.32;3.72;;;20.90;99.90;;;;;;5004888;28;20226;-88
2023/08/12 09:57:00;;;;;;;5.43;3.90;;;20.90;99.90;;;;;;5018587;28;20524;-88
2023/08/12 09:59:34;;;;;;;6.32;4.53;;;20.90;99.90;;;;;;5018959;28;20174;-89
2023/08/12 10:02:03;;;;;;;4.25;3.67;;;20.90;99.90;;;;;;5019036;28;20197;-88
2023/08/12 10:04:40;;;;;;;4.30;3.22;;;20.90;99.90;;;;;;5018688;28;20179;-89
2023/08/12 10:07:07;;;;;;;4.85;3.63;;;20.90;99.90;;;;;;5018725;28;20177;-88
2023/08/12 10:09:37;;;;;;;6.15;3.80;;;20.90;99.90;;;;;;5018482;28;20178;-88
2023/08/12 10:12:03;;;;;;;8.88;4.18;;;20.90;99.90;;;;;;5018904;28;20234;-88
2023/08/12 10:14:29;;;;;;;4.85;3.53;;;20.90;99.90;;;;;;5018618;28;20190;-88
2023/08/12 10:16:56;;;;;;;4.68;3.58;;;20.90;99.90;;;;;;5018420;28;20189;-88
2023/08/12 10:19:25;;;;;;;5.10;3.83;;;20.90;99.90;;;;;;5009101;28;20500;-87
2023/08/12 10:21:58;;;;;;;7.60;3.97;;;21.00;99.90;;;;;;5002236;28;20175;-88
2023/08/12 10:24:26;;;;;;;6.45;3.47;;;21.10;99.90;;;;;;5003038;28;20659;-89
2023/08/12 10:26:54;;;;;;;5.93;3.40;;;21.20;99.90;;;;;;5001553;28;20245;-90
2023/08/12 10:29:24;;;;;;;7.15;3.78;;;21.30;99.90;;;;;;5019800;28;20233;-89
2023/08/12 10:31:51;;;;;;;5.05;3.33;;;21.50;99.90;;;;;;5003605;28;20183;-88
2023/08/12 10:34:21;;;;;;;6.43;3.63;;;21.70;99.90;;;;;;5001764;28;20210;-90
2023/08/12 10:36:48;;;;;;;6.57;3.70;;;22.10;99.90;;;;;;5006263;28;20591;-89
2023/08/12 10:39:14;;;;;;;9.32;3.30;;;22.60;99.90;;;;;;5001324;28;20494;-90
2023/08/12 10:42:00;;;;;;;7.45;3.28;;;23.00;99.90;;;;;;4990809;28;20233;-89
2023/08/12 10:44:38;;;;;;;29.88;3.70;;;23.30;99.90;;;;;;5015433;28;20237;-87
2023/08/12 10:47:11;;;;;;;4.55;2.92;;;23.50;99.90;;;;;;5005059;28;20186;-91
2023/08/12 10:49:52;;;;;;;6.63;3.30;;;23.70;99.90;;;;;;5007796;28;20190;-90
2023/08/12 10:52:36;;;;;;;8.50;3.60;;;23.90;99.90;;;;;;5001399;28;20179;-88
2023/08/12 10:55:22;;;;;;;7.90;3.10;;;24.10;99.90;;;;;;4997860;28;20987;-90
2023/08/12 10:57:49;;;;;;;6.20;3.10;;;24.40;99.90;;;;;;4982941;28;20202;-90
2023/08/12 11:00:17;;;;;;;4.65;2.97;;;24.30;99.90;;;;;;4978116;28;20208;-89
2023/08/12 11:02:50;;;;;;;4.97;2.97;;;24.20;99.90;;;;;;4985946;28;20209;-91
2023/08/12 11:05:20;;;;;;;5.20;3.20;;;24.00;99.90;;;;;;4987016;28;20303;-89
2023/08/12 11:07:51;;;;;;;5.03;3.08;;;23.80;99.90;;;;;;4986819;28;20183;-88
2023/08/12 11:10:24;;;;;;;7.63;3.33;;;23.70;99.90;;;;;;4981140;28;20180;-94
2023/08/12 11:12:56;;;;;;;6.70;3.35;;;23.60;99.90;;;;;;4986258;28;20172;-91
2023/08/12 11:15:45;;;;;;;3.40;2.80;;;23.40;99.90;;;;;;4977791;28;20184;-90
2023/08/12 11:18:16;;;;;;;4.95;3.30;;;23.20;99.90;;;;;;4982244;28;20198;-90
2023/08/12 11:20:42;;;;;;;4.88;3.03;;;23.10;99.90;;;;;;4977546;28;20215;-90
2023/08/12 11:23:10;;;;;;;7.22;3.22;;;23.10;99.90;;;;;;4982590;28;20291;-90
2023/08/12 11:25:38;;;;;;;5.82;3.20;;;23.00;99.90;;;;;;4984981;28;20171;-90
2023/08/12 11:28:15;;;;;;;5.10;3.28;;;23.20;99.90;;;;;;4985305;28;20263;-90
2023/08/12 11:30:42;;;;;;;7.05;3.40;;;23.50;99.90;;;;;;4989814;28;20262;-92
2023/08/12 11:33:21;;;;;;;3.70;3.28;;;23.70;99.90;;;;;;4978423;28;20171;-94
2023/08/12 11:35:47;;;;;;;4.38;3.42;;;24.00;99.90;;;;;;4981776;28;20194;-92
2023/08/12 11:38:15;;;;;;;4.60;3.33;;;24.20;99.90;;;;;;4979473;28;20176;-92
2023/08/12 11:40:41;;;;;;;5.60;3.00;;;24.40;99.90;;;;;;4983391;28;20219;-92
2023/08/12 11:43:09;;;;;;;3.08;2.50;;;24.50;99.90;;;;;;4983920;28;20321;-93
2023/08/12 11:45:35;;;;;;;6.78;2.70;;;24.70;99.90;;;;;;4984860;28;20191;-93
2023/08/12 11:48:01;;;;;;;4.28;2.83;;;24.80;99.90;;;;;;4986042;28;20209;-96
2023/08/12 11:50:27;;;;;;;3.20;2.67;;;25.10;99.90;;;;;;4982261;28;20504;-89
2023/08/12 11:53:00;;;;;;;5.47;2.65;;;25.40;99.90;;;;;;4999825;28;20190;-92
2023/08/12 11:55:26;;;;;;;4.35;2.38;;;25.50;99.90;;;;;;5000321;28;20291;-90
2023/08/12 11:57:52;;;;;;;5.22;2.75;;;25.50;99.90;;;;;;4997613;28;20174;-91
2023/08/12 12:00:18;;;;;;;4.32;2.60;;;25.40;99.90;;;;;;5009652;28;20702;-94
2023/08/12 12:03:03;;;;;;;3.78;2.80;;;25.20;99.90;;;;;;5006392;28;20234;-93
2023/08/12 12:05:30;;;;;;;3.17;2.47;;;25.10;99.90;;;;;;5021375;28;20217;-93
2023/08/12 12:07:56;;;;;;;3.72;2.40;;;25.00;99.90;;;;;;5001938;28;20179;-93
2023/08/12 12:10:27;;;;;;;3.72;2.70;;;24.80;99.90;;;;;;5002505;28;20190;-92
2023/08/12 12:12:58;;;;;;;6.35;3.00;;;24.80;99.90;;;;;;5003609;28;20179;-94
2023/08/12 12:15:26;;;;;;;7.65;2.60;;;24.80;99.90;;;;;;4999334;28;20183;-90
2023/08/12 12:17:52;;;;;;;4.05;2.45;;;25.00;99.90;;;;;;5020065;28;20204;-92
2023/08/12 12:20:20;;;;;;;3.88;2.60;;;25.30;99.90;;;;;;5003410;28;20223;-96
2023/08/12 12:22:48;;;;;;;4.53;2.50;;;25.60;99.90;;;;;;4997665;28;20211;-94
2023/08/12 12:25:16;;;;;;;6.13;2.40;;;25.90;99.90;;;;;;5003858;28;20278;-94
2023/08/12 12:27:45;;;;;;;4.53;2.40;;;25.90;99.90;;;;;;5007288;28;20602;-95
2023/08/12 12:30:12;;;;;;;4.13;2.38;;;25.80;99.90;;;;;;5016086;28;20190;-93
2023/08/12 12:32:39;;;;;;;3.60;2.33;;;26.00;99.90;;;;;;5022322;28;20182;-93
2023/08/12 12:35:08;;;;;;;3.35;2.40;;;26.10;99.90;;;;;;5039054;28;20644;-93
2023/08/12 12:37:34;;;;;;;4.57;2.80;;;26.00;99.90;;;;;;5021210;28;20278;-92
2023/08/12 12:40:00;;;;;;;3.45;2.50;;;26.00;99.90;;;;;;5021113;28;20202;-94
2023/08/12 12:42:26;;;;;;;4.30;2.95;;;25.80;99.90;;;;;;5020964;28;20181;-92
2023/08/12 12:44:52;;;;;;;5.63;3.00;;;25.60;99.90;;;;;;5019563;28;20174;-93
2023/08/12 12:47:19;;;;;;;7.15;3.05;;;25.50;99.90;;;;;;5033537;28;20262;-90